Time;durP1;ratioP1;P1;durP2;ratioP2;P2;SDS_P1;SDS_P2;PMS_P1;PMS_P2;Temp;Humidity;BMP_temperature;BMP_pressure;BME280_temperature;BME280_humidity;BME280_pressure;Samples;Min_cycle;Max_cycle;Signal;HPM_P1;HPM_P2
2023/01/25 00:00:51;;;;;;;;;;;8.60;99.90;;;;;;5053304;28;19912;-77
2023/01/25 00:03:16;;;;;;;;;;;8.70;99.90;;;;;;5055049;28;19904;-77
2023/01/25 00:05:42;;;;;;;;;;;8.60;99.90;;;;;;5054532;28;19970;-76
2023/01/25 00:08:08;;;;;;;;;;;8.60;99.90;;;;;;5054529;28;20019;-70
2023/01/25 00:10:34;;;;;;;;;;;8.60;99.90;;;;;;5054648;28;19912;-77
2023/01/25 00:13:00;;;;;;;;;;;8.70;99.90;;;;;;5061478;28;20031;-77
2023/01/25 00:15:26;;;;;;;;;;;8.60;99.90;;;;;;5059379;28;20329;-75
2023/01/25 00:17:51;;;;;;;;;;;8.60;99.90;;;;;;5054632;28;19939;-77
2023/01/25 00:20:17;;;;;;;;;;;8.60;99.90;;;;;;5054279;28;20344;-76
2023/01/25 00:22:43;;;;;;;;;;;8.70;99.90;;;;;;5054193;28;19911;-75
2023/01/25 00:25:09;;;;;;;;;;;8.70;99.90;;;;;;5052736;28;19962;-75
2023/01/25 00:27:34;;;;;;;;;;;8.70;99.90;;;;;;5054080;28;19980;-76
2023/01/25 00:30:00;;;;;;;;;;;8.80;99.90;;;;;;5054073;28;19982;-76
2023/01/25 00:32:40;;;;;;;;;;;8.90;99.90;;;;;;5054033;28;19936;-75
2023/01/25 00:35:07;;;;;;;;;;;9.00;99.90;;;;;;5072374;28;19936;-76
2023/01/25 00:37:40;;;;;;;;;;;9.10;99.90;;;;;;5074107;28;19904;-76
2023/01/25 00:40:06;;;;;;;;;;;8.60;99.90;;;;;;5074304;28;19905;-75
2023/01/25 00:42:32;;;;;;;;;;;8.40;99.90;;;;;;5055459;28;19950;-76
2023/01/25 00:44:58;;;;;;;;;;;8.30;99.90;;;;;;5073612;28;20008;-76
2023/01/25 00:47:24;;;;;;;;;;;8.30;99.90;;;;;;5074048;28;19991;-75
2023/01/25 00:49:49;;;;;;;;;;;8.20;99.90;;;;;;5073894;28;19908;-75
2023/01/25 00:52:15;;;;;;;;;;;8.10;99.90;;;;;;5073580;28;19984;-76
2023/01/25 00:54:42;;;;;;;;;;;8.20;99.90;;;;;;5073532;28;20336;-73
2023/01/25 00:57:08;;;;;;;;;;;8.30;99.90;;;;;;5073561;28;19911;-76
2023/01/25 00:59:34;;;;;;;;;;;8.30;99.90;;;;;;5073462;28;19955;-76
2023/01/25 01:02:00;;;;;;;;;;;8.40;99.90;;;;;;5055377;28;19905;-76
2023/01/25 01:04:26;;;;;;;;;;;8.40;99.90;;;;;;5055244;28;19911;-70
2023/01/25 01:06:52;;;;;;;;;;;8.40;99.90;;;;;;5071923;28;19970;-76
2023/01/25 01:09:18;;;;;;;;;;;8.40;99.90;;;;;;5073863;28;19914;-76
2023/01/25 01:11:45;;;;;;;;;;;8.30;99.90;;;;;;5073531;28;19970;-76
2023/01/25 01:14:13;;;;;;;;;;;8.30;99.90;;;;;;5073230;28;19958;-77
2023/01/25 01:16:39;;;;;;;;;;;8.20;99.90;;;;;;5055209;28;19908;-77
2023/01/25 01:19:05;;;;;;;;;;;8.20;99.90;;;;;;5073345;28;20003;-75
2023/01/25 01:21:31;;;;;;;;;;;8.10;99.90;;;;;;5072649;28;19998;-75
2023/01/25 01:23:56;;;;;;;;;;;8.10;99.90;;;;;;5073418;28;19932;-77
2023/01/25 01:26:24;;;;;;;;;;;8.10;99.90;;;;;;5073189;28;19984;-73
2023/01/25 01:28:49;;;;;;;;;;;7.90;99.90;;;;;;5072994;28;19912;-77
2023/01/25 01:31:17;;;;;;;;;;;7.80;99.90;;;;;;5073130;28;20343;-77
2023/01/25 01:33:42;;;;;;;;;;;7.80;99.90;;;;;;5072681;28;19988;-76
2023/01/25 01:36:08;;;;;;;;;;;7.80;99.90;;;;;;5073159;28;19994;-76
2023/01/25 01:38:34;;;;;;;;;;;7.80;99.90;;;;;;5072651;28;19909;-75
2023/01/25 01:41:00;;;;;;;;;;;7.80;99.90;;;;;;5072643;28;20275;-76
2023/01/25 01:43:26;;;;;;;;;;;7.80;99.90;;;;;;5072853;28;19905;-76
2023/01/25 01:45:53;;;;;;;;;;;7.90;99.90;;;;;;5054006;28;19904;-76
2023/01/25 01:48:24;;;;;;;;;;;7.90;99.90;;;;;;5052161;28;19917;-76
2023/01/25 01:50:51;;;;;;;;;;;7.90;99.90;;;;;;5052847;28;20357;-76
2023/01/25 01:53:19;;;;;;;;;;;8.00;99.90;;;;;;5052788;28;19992;-77
2023/01/25 01:55:46;;;;;;;;;;;8.00;99.90;;;;;;5051114;28;20003;-76
2023/01/25 01:58:12;;;;;;;;;;;7.90;99.90;;;;;;5052793;28;19905;-76
2023/01/25 02:00:39;;;;;;;;;;;7.90;99.90;;;;;;5052261;28;19911;-77
2023/01/25 02:03:05;;;;;;;;;;;7.90;99.90;;;;;;5052448;28;19905;-70
2023/01/25 02:05:34;;;;;;;;;;;7.80;99.90;;;;;;5052290;28;20434;-75
2023/01/25 02:08:02;;;;;;;;;;;7.90;99.90;;;;;;5052529;28;19912;-76
2023/01/25 02:10:30;;;;;;;;;;;7.90;99.90;;;;;;5050773;28;19904;-77
2023/01/25 02:12:57;;;;;;;;;;;7.90;99.90;;;;;;5052658;28;20337;-76
2023/01/25 02:15:23;;;;;;;;;;;7.90;99.90;;;;;;5052002;28;19916;-76
2023/01/25 02:17:50;;;;;;;;;;;7.90;99.90;;;;;;5052185;28;19905;-77
2023/01/25 02:20:22;;;;;;;;;;;7.80;99.90;;;;;;5052384;28;20241;-76
2023/01/25 02:22:51;;;;;;;;;;;7.80;99.90;;;;;;5052052;28;19905;-77
2023/01/25 02:25:17;;;;;;;;;;;7.80;99.90;;;;;;5052068;28;19995;-77
2023/01/25 02:27:53;;;;;;;;;;;7.80;99.90;;;;;;5051798;28;20081;-75
2023/01/25 02:30:19;;;;;;;;;;;7.80;99.90;;;;;;5052089;28;19917;-76
2023/01/25 02:32:44;;;;;;;;;;;7.80;99.90;;;;;;5052333;28;19905;-77
2023/01/25 02:35:18;;;;;;;;;;;7.80;99.90;;;;;;5071039;28;19917;-77
2023/01/25 02:37:44;;;;;;;;;;;7.80;99.90;;;;;;5071760;28;19957;-77
2023/01/25 02:40:10;;;;;;;;;;;7.80;99.90;;;;;;5053666;28;19951;-76
2023/01/25 02:42:36;;;;;;;;;;;7.90;99.90;;;;;;5071783;28;20267;-76
2023/01/25 02:45:05;;;;;;;;;;;7.90;99.90;;;;;;5071675;28;20375;-77
2023/01/25 02:47:32;;;;;;;;;;;8.00;99.90;;;;;;5071549;28;19944;-77
2023/01/25 02:49:58;;;;;;;;;;;8.10;99.90;;;;;;5071177;28;19912;-77
2023/01/25 02:52:24;;;;;;;;;;;8.10;99.90;;;;;;5070348;28;19905;-77
2023/01/25 02:54:50;;;;;;;;;;;8.10;99.90;;;;;;5070287;28;19955;-77
2023/01/25 02:57:16;;;;;;;;;;;8.10;99.90;;;;;;5071698;28;19905;-74
2023/01/25 02:59:42;;;;;;;;;;;8.00;99.90;;;;;;5072337;28;19926;-75
2023/01/25 03:02:08;;;;;;;;;;;8.10;99.90;;;;;;5073669;28;20403;-77
2023/01/25 03:04:34;;;;;;;;;;;8.10;99.90;;;;;;5073356;28;19978;-77
2023/01/25 03:06:59;;;;;;;;;;;8.10;99.90;;;;;;5071627;28;20234;-77
2023/01/25 03:09:26;;;;;;;;;;;8.10;99.90;;;;;;5071471;28;19915;-77
2023/01/25 03:11:52;;;;;;;;;;;8.10;99.90;;;;;;5053170;28;19952;-76
2023/01/25 03:14:17;;;;;;;;;;;8.20;99.90;;;;;;5071404;28;19936;-77
2023/01/25 03:16:43;;;;;;;;;;;8.20;99.90;;;;;;5053139;28;20046;-77
2023/01/25 03:19:10;;;;;;;;;;;8.20;99.90;;;;;;5071378;28;19928;-76
2023/01/25 03:21:36;;;;;;;;;;;8.20;99.90;;;;;;5071408;28;19987;-76
2023/01/25 03:24:01;;;;;;;;;;;8.20;99.90;;;;;;5071625;28;19957;-76
2023/01/25 03:26:28;;;;;;;;;;;8.30;99.90;;;;;;5071361;28;20386;-76
2023/01/25 03:28:54;;;;;;;;;;;8.40;99.90;;;;;;5071219;28;19916;-76
2023/01/25 03:31:20;;;;;;;;;;;8.40;99.90;;;;;;5071246;28;20332;-77
2023/01/25 03:33:45;;;;;;;;;;;8.40;99.90;;;;;;5071051;28;19918;-77
2023/01/25 03:36:11;;;;;;;;;;;8.40;99.90;;;;;;5053005;28;20010;-76
2023/01/25 03:38:37;;;;;;;;;;;8.40;99.90;;;;;;5071212;28;20198;-77
2023/01/25 03:41:03;;;;;;;;;;;8.50;99.90;;;;;;5070984;28;19965;-77
2023/01/25 03:43:29;;;;;;;;;;;8.50;99.90;;;;;;5053014;28;19908;-77
2023/01/25 03:45:56;;;;;;;;;;;8.50;99.90;;;;;;5070875;28;19904;-76
2023/01/25 03:48:22;;;;;;;;;;;8.50;99.90;;;;;;5071213;28;19927;-75
2023/01/25 03:50:52;;;;;;;;;;;8.60;99.90;;;;;;5070990;28;19915;-77
2023/01/25 03:53:31;;;;;;;;;;;8.60;99.90;;;;;;5071421;28;20318;-77
2023/01/25 03:56:07;;;;;;;;;;;8.60;99.90;;;;;;5071169;28;19916;-77
2023/01/25 03:58:34;;;;;;;;;;;8.60;99.90;;;;;;5071969;28;19904;-77
2023/01/25 04:01:00;;;;;;;;;;;8.60;99.90;;;;;;5071799;28;19915;-77
2023/01/25 04:03:27;;;;;;;;;;;8.60;99.90;;;;;;5071565;28;19927;-78
2023/01/25 04:05:53;;;;;;;;;;;8.60;99.90;;;;;;5071652;28;19904;-76
2023/01/25 04:08:19;;;;;;;;;;;8.50;99.90;;;;;;5071615;28;19913;-77
2023/01/25 04:10:50;;;;;;;;;;;8.50;99.90;;;;;;5074108;28;19905;-77
2023/01/25 04:13:17;;;;;;;;;;;8.50;99.90;;;;;;5075616;28;20352;-77
2023/01/25 04:15:43;;;;;;;;;;;8.50;99.90;;;;;;5074974;28;19922;-76
2023/01/25 04:18:09;;;;;;;;;;;8.60;99.90;;;;;;5075431;28;20033;-77
2023/01/25 04:20:35;;;;;;;;;;;8.60;99.90;;;;;;5073648;28;19915;-77
2023/01/25 04:23:01;;;;;;;;;;;8.70;99.90;;;;;;5075617;28;19924;-76
2023/01/25 04:25:26;;;;;;;;;;;8.70;99.90;;;;;;5075485;28;20257;-76
2023/01/25 04:27:52;;;;;;;;;;;8.70;99.90;;;;;;5075799;28;19920;-76
2023/01/25 04:30:18;;;;;;;;;;;8.80;99.90;;;;;;5075274;28;19966;-77
2023/01/25 04:32:44;;;;;;;;;;;8.70;99.90;;;;;;5075585;28;20344;-78
2023/01/25 04:35:10;;;;;;;;;;;8.80;99.90;;;;;;5073952;28;20014;-77
2023/01/25 04:37:37;;;;;;;;;;;8.80;99.90;;;;;;5074200;28;19904;-77
2023/01/25 04:40:03;;;;;;;;;;;8.70;99.90;;;;;;5074295;28;20366;-76
2023/01/25 04:42:29;;;;;;;;;;;8.70;99.90;;;;;;5056941;28;19905;-77
2023/01/25 04:44:55;;;;;;;;;;;8.70;99.90;;;;;;5074786;28;19911;-76
2023/01/25 04:47:20;;;;;;;;;;;8.80;99.90;;;;;;5073466;28;19920;-77
2023/01/25 04:49:46;;;;;;;;;;;8.70;99.90;;;;;;5074860;28;20264;-77
2023/01/25 04:52:12;;;;;;;;;;;8.70;99.90;;;;;;5075019;28;19905;-77
2023/01/25 04:54:38;;;;;;;;;;;8.60;99.90;;;;;;5074836;28;19997;-76
2023/01/25 04:57:04;;;;;;;;;;;8.50;99.90;;;;;;5075220;28;19911;-77
2023/01/25 04:59:30;;;;;;;;;;;8.60;99.90;;;;;;5074514;28;20007;-76
2023/01/25 05:01:55;;;;;;;;;;;8.50;99.90;;;;;;5074929;28;19991;-73
2023/01/25 05:04:21;;;;;;;;;;;8.50;99.90;;;;;;5074958;28;19904;-77
2023/01/25 05:06:47;;;;;;;;;;;8.40;99.90;;;;;;5074723;28;19950;-77
2023/01/25 05:09:13;;;;;;;;;;;8.30;99.90;;;;;;5074862;28;20074;-76
2023/01/25 05:11:39;;;;;;;;;;;8.50;99.90;;;;;;5074643;28;19904;-76
2023/01/25 05:14:05;;;;;;;;;;;8.60;99.90;;;;;;5074599;28;20278;-76
2023/01/25 05:16:32;;;;;;;;;;;8.70;99.90;;;;;;5075108;28;19912;-77
2023/01/25 05:18:58;;;;;;;;;;;8.70;99.90;;;;;;5074977;28;20006;-76
2023/01/25 05:24:09;;;;;;;;;;;8.80;99.90;;;;;;5075488;28;20003;-76
2023/01/25 05:29:19;;;;;;;;;;;8.80;99.90;;;;;;5074740;28;20299;-74
2023/01/25 05:31:44;;;;;;;;;;;8.80;99.90;;;;;;5075176;28;19904;-77
2023/01/25 05:34:10;;;;;;;;;;;8.80;99.90;;;;;;5063798;28;19924;-77
2023/01/25 05:36:36;;;;;;;;;;;8.80;99.90;;;;;;5053668;28;19954;-77
2023/01/25 05:39:03;;;;;;;;;;;8.80;99.90;;;;;;5054948;28;19912;-77
2023/01/25 05:41:29;;;;;;;;;;;8.70;99.90;;;;;;5054526;28;19950;-76
2023/01/25 05:43:55;;;;;;;;;;;8.60;99.90;;;;;;5054131;28;19951;-76
2023/01/25 05:46:21;;;;;;;;;;;8.60;99.90;;;;;;5054476;28;20344;-75
2023/01/25 05:48:47;;;;;;;;;;;8.60;99.90;;;;;;5052783;28;19912;-75
2023/01/25 05:51:13;;;;;;;;;;;8.50;99.90;;;;;;5056018;28;20018;-76
2023/01/25 05:53:38;;;;;;;;;;;8.50;99.90;;;;;;5074645;28;20018;-76
2023/01/25 05:56:05;;;;;;;;;;;8.40;99.90;;;;;;5073535;28;20263;-76
2023/01/25 05:58:31;;;;;;;;;;;8.40;99.90;;;;;;5073241;28;19905;-70
2023/01/25 06:01:04;;;;;;;;;;;8.40;99.90;;;;;;5084930;28;19908;-72
2023/01/25 06:03:30;;;;;;;;;;;8.30;99.90;;;;;;5074118;28;19908;-77
2023/01/25 06:05:57;;;;;;;;;;;8.30;99.90;;;;;;5073530;28;19911;-77
2023/01/25 06:08:24;;;;;;;;;;;8.30;99.90;;;;;;5073975;28;19920;-75
2023/01/25 06:10:50;;;;;;;;;;;8.30;99.90;;;;;;5071969;28;19924;-77
2023/01/25 06:13:16;;;;;;;;;;;8.30;99.90;;;;;;5072542;28;19905;-70
2023/01/25 06:15:54;;;;;;;;;;;8.30;99.90;;;;;;5072433;28;19904;-69
2023/01/25 06:18:23;;;;;;;;;;;8.40;99.90;;;;;;5070716;28;19947;-74
2023/01/25 06:20:49;;;;;;;;;;;8.40;99.90;;;;;;5061537;28;19908;-74
2023/01/25 06:23:15;;;;;;;;;;;8.40;99.90;;;;;;5069784;28;19932;-76
2023/01/25 06:25:41;;;;;;;;;;;8.50;99.90;;;;;;5072257;28;20371;-76
2023/01/25 06:28:07;;;;;;;;;;;8.50;99.90;;;;;;5072068;28;19918;-72
2023/01/25 06:30:35;;;;;;;;;;;8.50;99.90;;;;;;5073347;28;20379;-70
2023/01/25 06:33:00;;;;;;;;;;;8.50;99.90;;;;;;5054725;28;19908;-76
2023/01/25 06:35:27;;;;;;;;;;;8.60;99.90;;;;;;5073288;28;19965;-79
2023/01/25 06:37:57;;;;;;;;;;;8.60;99.90;;;;;;5055129;28;19904;-78
2023/01/25 06:40:27;;;;;;;;;;;8.70;99.90;;;;;;5069058;28;19909;-75
2023/01/25 06:42:53;;;;;;;;;;;8.90;99.90;;;;;;5061732;28;20379;-77
2023/01/25 06:45:19;;;;;;;;;;;8.90;99.90;;;;;;5052715;28;19928;-78
2023/01/25 06:47:47;;;;;;;;;;;9.00;99.90;;;;;;5053107;28;20202;-78
2023/01/25 06:50:13;;;;;;;;;;;9.10;99.90;;;;;;5052601;28;19905;-78
2023/01/25 06:52:40;;;;;;;;;;;9.20;99.90;;;;;;5052290;28;19928;-79
2023/01/25 06:55:07;;;;;;;;;;;9.30;99.90;;;;;;5052234;28;19905;-75
2023/01/25 06:57:33;;;;;;;;;;;9.40;99.90;;;;;;5051904;28;20003;-77
2023/01/25 06:59:59;;;;;;;;;;;9.40;99.90;;;;;;5051548;28;20356;-78
2023/01/25 07:02:25;;;;;;;;;;;9.40;99.90;;;;;;5052628;28;19912;-76
2023/01/25 07:04:51;;;;;;;;;;;9.50;99.90;;;;;;5052254;28;19909;-78
2023/01/25 07:07:16;;;;;;;;;;;9.50;99.90;;;;;;5052659;28;20011;-75
2023/01/25 07:09:42;;;;;;;;;;;9.60;99.90;;;;;;5052360;28;20003;-78
2023/01/25 07:12:08;;;;;;;;;;;10.00;99.90;;;;;;5052058;28;20000;-77
2023/01/25 07:14:34;;;;;;;;;;;10.20;99.90;;;;;;5051914;28;19904;-76
2023/01/25 07:17:00;;;;;;;;;;;10.40;99.90;;;;;;5052672;28;19980;-78
2023/01/25 07:19:25;;;;;;;;;;;10.30;99.90;;;;;;5052149;28;19943;-76
2023/01/25 07:21:51;;;;;;;;;;;10.30;99.90;;;;;;5052477;28;19950;-76
2023/01/25 07:24:18;;;;;;;;;;;10.40;99.90;;;;;;5034509;28;19905;-76
2023/01/25 07:26:44;;;;;;;;;;;10.30;99.90;;;;;;5034471;28;19905;-76
2023/01/25 07:29:13;;;;;;;;;;;10.30;99.90;;;;;;5052542;28;19917;-75
2023/01/25 07:31:40;;;;;;;;;;;10.30;99.90;;;;;;5052366;28;19909;-78
2023/01/25 07:34:07;;;;;;;;;;;10.40;99.90;;;;;;5062100;28;19923;-76
2023/01/25 07:36:33;;;;;;;;;;;10.70;99.90;;;;;;5072309;28;19905;-76
2023/01/25 07:38:59;;;;;;;;;;;10.90;99.90;;;;;;5054259;28;19910;-76
2023/01/25 07:41:26;;;;;;;;;;;11.00;99.90;;;;;;5071638;28;20411;-76
2023/01/25 07:43:56;;;;;;;;;;;11.00;99.90;;;;;;5069718;28;19920;-78
2023/01/25 07:46:22;;;;;;;;;;;10.80;99.90;;;;;;5053748;28;20285;-77
2023/01/25 07:48:49;;;;;;;;;;;10.80;99.90;;;;;;5068172;28;19993;-73
2023/01/25 07:51:22;;;;;;;;;;;10.70;99.90;;;;;;5063781;28;20387;-77
2023/01/25 07:53:52;;;;;;;;;;;10.70;99.90;;;;;;5063579;28;19908;-76
2023/01/25 07:56:19;;;;;;;;;;;10.80;99.90;;;;;;5063751;28;19991;-78
2023/01/25 07:58:46;;;;;;;;;;;10.60;99.90;;;;;;5040340;28;19990;-77
2023/01/25 08:01:13;;;;;;;;;;;10.30;99.90;;;;;;5055309;28;19908;-76
2023/01/25 08:03:39;;;;;;;;;;;10.20;99.90;;;;;;5038124;28;19904;-76
2023/01/25 08:06:05;;;;;;;;;;;10.10;99.90;;;;;;5055398;28;19916;-75
2023/01/25 08:08:32;;;;;;;;;;;10.10;99.90;;;;;;5055773;28;19952;-75
2023/01/25 08:10:59;;;;;;;;;;;10.10;99.90;;;;;;5055187;28;20057;-77
2023/01/25 08:13:24;;;;;;;;;;;10.10;99.90;;;;;;5055766;28;19931;-75
2023/01/25 08:15:54;;;;;;;;;;;10.10;99.90;;;;;;5055079;28;19995;-75
2023/01/25 08:18:21;;;;;;;;;;;10.10;99.90;;;;;;5055605;28;19971;-77
2023/01/25 08:20:47;;;;;;;;;;;10.00;99.90;;;;;;5053727;28;19991;-76
2023/01/25 08:23:13;;;;;;;;;;;9.90;99.90;;;;;;5055523;28;19968;-76
2023/01/25 08:25:39;;;;;;;;;;;9.90;99.90;;;;;;5054952;28;19905;-76
2023/01/25 08:28:09;;;;;;;;;;;10.00;99.90;;;;;;5055338;28;19913;-76
2023/01/25 08:30:35;;;;;;;;;;;9.90;99.90;;;;;;5054618;28;20382;-76
2023/01/25 08:33:05;;;;;;;;;;;10.00;99.90;;;;;;5056050;28;19924;-76
2023/01/25 08:35:31;;;;;;;;;;;10.10;99.90;;;;;;5075142;28;20408;-76
2023/01/25 08:37:56;;;;;;;;;;;10.30;99.90;;;;;;5074816;28;19939;-77
2023/01/25 08:40:26;;;;;;;;;;;10.40;99.90;;;;;;5074572;28;20365;-76
2023/01/25 08:42:52;;;;;;;;;;;10.40;99.90;;;;;;5074880;28;20303;-75
2023/01/25 08:45:18;;;;;;;;;;;10.40;99.90;;;;;;5074126;28;19931;-76
2023/01/25 08:47:44;;;;;;;;;;;10.40;99.90;;;;;;5074572;28;19916;-76
2023/01/25 08:50:10;;;;;;;;;;;10.40;99.90;;;;;;5074420;28;19924;-76
2023/01/25 08:52:36;;;;;;;;;;;10.50;99.90;;;;;;5074352;28;19904;-76
2023/01/25 08:55:03;;;;;;;;;;;10.30;99.90;;;;;;5073923;28;19911;-77
2023/01/25 08:57:29;;;;;;;;;;;10.40;99.90;;;;;;5073645;28;19905;-76
2023/01/25 08:59:55;;;;;;;;;;;10.50;99.90;;;;;;5073625;28;20313;-75
2023/01/25 09:02:21;;;;;;;;;;;10.50;99.90;;;;;;5073772;28;19923;-77
2023/01/25 09:04:47;;;;;;;;;;;10.80;99.90;;;;;;5072531;28;20271;-77
2023/01/25 09:07:13;;;;;;;;;;;10.80;99.90;;;;;;5061358;28;19963;-76
2023/01/25 09:09:39;;;;;;;;;;;10.80;99.90;;;;;;5054016;28;19908;-77
2023/01/25 09:12:06;;;;;;;;;;;10.80;99.90;;;;;;5053858;28;19905;-77
2023/01/25 09:14:32;;;;;;;;;;;11.00;99.90;;;;;;5060537;28;20312;-77
2023/01/25 09:16:58;;;;;;;;;;;11.30;99.90;;;;;;5073416;28;19912;-74
2023/01/25 09:19:24;;;;;;;;;;;11.60;99.90;;;;;;5072057;28;20339;-76
2023/01/25 09:21:50;;;;;;;;;;;11.80;99.90;;;;;;5073250;28;20008;-76
2023/01/25 09:24:16;;;;;;;;;;;12.20;99.90;;;;;;5073398;28;20347;-76
2023/01/25 09:26:42;;;;;;;;;;;12.80;99.90;;;;;;5073922;28;19911;-74
2023/01/25 09:29:09;;;;;;;;;;;13.20;99.90;;;;;;5073426;28;20045;-77
2023/01/25 09:31:38;;;;;;;;;;;12.80;99.90;;;;;;5054833;28;19905;-76
2023/01/25 09:34:05;;;;;;;;;;;13.10;99.90;;;;;;5072795;28;19916;-77
2023/01/25 09:36:31;;;;;;;;;;;13.60;99.90;;;;;;5072826;28;19976;-76
2023/01/25 09:38:57;;;;;;;;;;;13.00;99.90;;;;;;5073132;28;19908;-76
2023/01/25 09:41:45;;;;;;;;;;;13.10;99.90;;;;;;5073884;28;19997;-76
2023/01/25 09:44:32;;;;;;;;;;;13.30;99.90;;;;;;5073592;28;19908;-75
2023/01/25 09:47:00;;;;;;;;;;;13.50;99.90;;;;;;5073701;28;20365;-76
2023/01/25 09:49:29;;;;;;;;;;;13.50;99.90;;;;;;5073348;28;19951;-76
2023/01/25 09:52:06;;;;;;;;;;;13.60;99.90;;;;;;5073061;28;19967;-75
2023/01/25 09:54:36;;;;;;;;;;;13.80;99.90;;;;;;5073517;28;19909;-76
2023/01/25 09:57:02;;;;;;;;;;;13.70;99.90;;;;;;5072663;28;19905;-76
2023/01/25 09:59:29;;;;;;;;;;;13.50;99.90;;;;;;5072936;28;19904;-76
2023/01/25 10:02:04;;;;;;;;;;;13.50;99.90;;;;;;5072699;28;20353;-76
2023/01/25 10:04:36;;;;;;;;;;;13.30;99.90;;;;;;5073030;28;19904;-75
2023/01/25 10:07:09;;;;;;;;;;;13.30;99.90;;;;;;5054783;28;19911;-75
2023/01/25 10:09:41;;;;;;;;;;;13.30;99.90;;;;;;5073176;28;19905;-75
2023/01/25 10:12:16;;;;;;;;;;;13.20;99.90;;;;;;5073525;28;20345;-75
2023/01/25 10:14:42;;;;;;;;;;;13.20;99.90;;;;;;5072922;28;19904;-70
2023/01/25 10:17:23;;;;;;;;;;;13.30;99.90;;;;;;5072710;28;19930;-79
2023/01/25 10:19:55;;;;;;;;;;;13.30;99.90;;;;;;5072458;28;19999;-77
2023/01/25 10:22:23;;;;;;;;;;;13.40;99.90;;;;;;5072981;28;19927;-77
2023/01/25 10:25:10;;;;;;;;;;;13.30;99.90;;;;;;5055050;28;19909;-76
2023/01/25 10:27:36;;;;;;;;;;;13.50;99.90;;;;;;5072285;28;19909;-77
2023/01/25 10:30:12;;;;;;;;;;;13.40;99.90;;;;;;5072494;28;19904;-76
2023/01/25 10:32:39;;;;;;;;;;;13.60;99.90;;;;;;5072965;28;19974;-76
2023/01/25 10:35:15;;;;;;;;;;;13.80;99.90;;;;;;5072171;28;19916;-76
2023/01/25 10:37:41;;;;;;;;;;;14.20;99.90;;;;;;5072070;28;19908;-75
2023/01/25 10:40:23;;;;;;;;;;;14.60;99.90;;;;;;5072366;28;19904;-73
2023/01/25 10:43:02;;;;;;;;;;;14.90;99.90;;;;;;5072248;28;19987;-75
2023/01/25 10:45:27;;;;;;;;;;;15.20;99.90;;;;;;5053561;28;19904;-77
2023/01/25 10:48:04;;;;;;;;;;;15.40;99.90;;;;;;5071738;28;19916;-75
2023/01/25 10:50:45;;;;;;;;;;;15.50;99.90;;;;;;5071648;28;19904;-78
2023/01/25 10:53:32;;;;;;;;;;;15.60;99.90;;;;;;5087154;28;19935;-75
2023/01/25 10:55:58;;;;;;;;;;;15.30;99.90;;;;;;5083619;28;20034;-78
2023/01/25 10:58:30;;;;;;;;;;;14.90;99.90;;;;;;5077832;28;20279;-75
2023/01/25 11:00:57;;;;;;;;;;;15.00;99.90;;;;;;5072196;28;19911;-72
2023/01/25 11:03:32;;;;;;;;;;;15.20;99.90;;;;;;5071775;28;19905;-76
2023/01/25 11:05:58;;;;;;;;;;;15.20;99.90;;;;;;5053719;28;20421;-75
2023/01/25 11:08:44;;;;;;;;;;;14.40;99.90;;;;;;5071936;28;20007;-76
2023/01/25 11:11:30;;;;;;;;;;;13.70;99.90;;;;;;5071866;28;19934;-74
2023/01/25 11:13:56;;;;;;;;;;;13.90;99.90;;;;;;5071616;28;19908;-75
2023/01/25 11:16:34;;;;;;;;;;;14.30;99.90;;;;;;5071287;28;19912;-76
2023/01/25 11:19:01;;;;;;;;;;;14.70;99.90;;;;;;5054179;28;19988;-76
2023/01/25 11:21:34;;;;;;;;;;;15.10;99.90;;;;;;5075589;28;19958;-76
2023/01/25 11:24:00;;;;;;;;;;;15.30;99.90;;;;;;5066323;28;19904;-76
2023/01/25 11:26:26;;;;;;;;;;;15.20;99.90;;;;;;5076065;28;20003;-75
2023/01/25 11:29:05;;;;;;;;;;;15.30;99.90;;;;;;5075380;28;20336;-76
2023/01/25 11:31:30;;;;;;;;;;;15.20;99.90;;;;;;5075235;28;19986;-75
2023/01/25 11:33:56;;;;;;;;;;;15.20;99.90;;;;;;5075358;28;20302;-78
2023/01/25 11:36:25;;;;;;;;;;;15.10;99.90;;;;;;5075753;28;19904;-78
2023/01/25 11:38:56;;;;;;;;;;;15.00;99.90;;;;;;5075512;28;19908;-77
2023/01/25 11:41:22;;;;;;;;;;;14.70;99.90;;;;;;5076087;28;19905;-76
2023/01/25 11:44:07;;;;;;;;;;;14.50;99.90;;;;;;5075397;28;19904;-76
2023/01/25 11:46:51;;;;;;;;;;;14.60;99.90;;;;;;5075391;28;19911;-75
2023/01/25 11:49:36;;;;;;;;;;;14.60;99.90;;;;;;5076045;28;19966;-75
2023/01/25 11:52:12;;;;;;;;;;;14.80;99.90;;;;;;5084720;28;19958;-73
2023/01/25 11:54:43;;;;;;;;;;;15.30;99.90;;;;;;5095755;28;20335;-76
2023/01/25 11:57:27;;;;;;;;;;;15.80;99.90;;;;;;5095615;28;20210;-75
2023/01/25 12:00:09;;;;;;;;;;;15.80;99.90;;;;;;5095627;28;19977;-75
2023/01/25 12:02:49;;;;;;;;;;;15.80;99.90;;;;;;5088914;28;20343;-75
2023/01/25 12:05:15;;;;;;;;;;;15.80;99.90;;;;;;5094816;28;20240;-75
2023/01/25 12:07:53;;;;;;;;;;;15.70;99.90;;;;;;5076491;28;19916;-75
2023/01/25 12:10:19;;;;;;;;;;;15.50;99.90;;;;;;5095755;28;19904;-76
2023/01/25 12:12:44;;;;;;;;;;;15.60;99.90;;;;;;5095447;28;19999;-72
2023/01/25 12:15:28;;;;;;;;;;;15.70;99.90;;;;;;5082335;28;19947;-75
2023/01/25 12:18:02;;;;;;;;;;;15.90;99.90;;;;;;5075517;28;20364;-76
2023/01/25 12:20:54;;;;;;;;;;;15.80;99.90;;;;;;5075320;28;19934;-75
2023/01/25 12:23:31;;;;;;;;;;;15.60;99.90;;;;;;5043976;28;19914;-76
2023/01/25 12:26:15;;;;;;;;;;;15.60;99.90;;;;;;5075404;28;19999;-76
2023/01/25 12:29:02;;;;;;;;;;;15.70;99.90;;;;;;5075158;28;19985;-72
2023/01/25 12:31:39;;;;;;;;;;;15.80;99.90;;;;;;5074514;28;19904;-76
2023/01/25 12:34:13;;;;;;;;;;;16.00;99.90;;;;;;5074891;28;19962;-76
2023/01/25 12:36:46;;;;;;;;;;;15.70;99.90;;;;;;5075160;28;19908;-76
2023/01/25 12:39:20;;;;;;;;;;;15.90;99.90;;;;;;5056738;28;19934;-74
2023/01/25 12:41:58;;;;;;;;;;;15.90;99.90;;;;;;5057104;28;20350;-73
2023/01/25 12:44:26;;;;;;;;;;;15.70;99.90;;;;;;5075263;28;19911;-76
2023/01/25 12:46:58;;;;;;;;;;;15.70;99.90;;;;;;5074638;28;19904;-76
2023/01/25 12:49:38;;;;;;;;;;;15.70;99.90;;;;;;5075183;28;19991;-78
2023/01/25 12:52:06;;;;;;;;;;;15.70;99.90;;;;;;5074727;28;20366;-76
2023/01/25 12:54:41;;;;;;;;;;;15.60;99.90;;;;;;5074714;28;19999;-76
2023/01/25 12:57:19;;;;;;;;;;;15.50;99.90;;;;;;5074752;28;19905;-74
2023/01/25 13:00:17;;;;;;;;;;;15.40;99.90;;;;;;5074803;28;20305;-73
2023/01/25 13:03:01;;;;;;;;;;;15.30;99.90;;;;;;4993242;28;19910;-73
2023/01/25 13:05:35;;;;;;;;;;;15.10;99.90;;;;;;4993927;28;19956;-75
2023/01/25 13:08:07;;;;;;;;;;;15.00;99.90;;;;;;4991876;28;19922;-75
2023/01/25 13:10:37;;;;;;;;;;;14.80;99.90;;;;;;4993307;28;19936;-73
2023/01/25 13:13:17;;;;;;;;;;;14.80;99.90;;;;;;4990077;28;19956;-75
2023/01/25 13:15:44;;;;;;;;;;;14.80;99.90;;;;;;4983513;28;20001;-71
2023/01/25 13:18:28;;;;;;;;;;;14.70;99.90;;;;;;4974347;28;20274;-74
2023/01/25 13:20:55;;;;;;;;;;;14.60;99.90;;;;;;4974346;28;20270;-75
2023/01/25 13:23:57;;;;;;;;;;;14.70;99.90;;;;;;4974144;28;19996;-74
2023/01/25 13:26:28;;;;;;;;;;;14.80;99.90;;;;;;4974013;28;19906;-71
2023/01/25 13:28:55;;;;;;;;;;;14.70;99.90;;;;;;4974012;28;20030;-76
2023/01/25 13:31:39;;;;;;;;;;;14.70;99.90;;;;;;4974050;28;19913;-75
2023/01/25 13:34:11;;;;;;;;;;;14.60;99.90;;;;;;4981212;28;19949;-75
2023/01/25 13:36:45;;;;;;;;;;;14.50;99.90;;;;;;4977191;28;19905;-75
2023/01/25 13:39:23;;;;;;;;;;;14.50;99.90;;;;;;5038888;28;19943;-75
2023/01/25 13:42:07;;;;;;;;;;;14.40;99.90;;;;;;5056551;28;20311;-75
2023/01/25 13:44:36;;;;;;;;;;;14.30;99.90;;;;;;5074500;28;20257;-75
2023/01/25 13:47:07;;;;;;;;;;;14.20;99.90;;;;;;5074334;28;20007;-74
2023/01/25 13:49:39;;;;;;;;;;;14.20;99.90;;;;;;5074991;28;19908;-76
2023/01/25 13:52:07;;;;;;;;;;;14.10;99.90;;;;;;5073896;28;19911;-75
2023/01/25 13:54:41;;;;;;;;;;;14.10;99.90;;;;;;5055821;28;19943;-75
2023/01/25 13:57:11;;;;;;;;;;;14.00;99.90;;;;;;5074370;28;19915;-75
2023/01/25 13:59:37;;;;;;;;;;;13.90;99.90;;;;;;5073927;28;19904;-76
2023/01/25 14:02:05;;;;;;;;;;;14.00;99.90;;;;;;5073785;28;19911;-74
2023/01/25 14:04:46;;;;;;;;;;;13.90;99.90;;;;;;5091226;27;19921;-69
2023/01/25 14:07:15;;;;;;;;;;;13.90;99.90;;;;;;5089297;28;19912;-75
2023/01/25 14:09:41;;;;;;;;;;;13.70;99.90;;;;;;5090651;28;19944;-74
2023/01/25 14:12:09;;;;;;;;;;;13.60;99.90;;;;;;5090314;28;20417;-74
2023/01/25 14:14:36;;;;;;;;;;;13.60;99.90;;;;;;5097416;28;19908;-75
2023/01/25 14:17:08;;;;;;;;;;;13.50;99.90;;;;;;5111071;28;20007;-75
2023/01/25 14:19:35;;;;;;;;;;;13.40;99.90;;;;;;5111170;28;19916;-75
2023/01/25 14:22:19;;;;;;;;;;;13.30;99.90;;;;;;5111524;28;19908;-75
2023/01/25 14:24:59;;;;;;;;;;;13.20;99.90;;;;;;5111073;28;20014;-73
2023/01/25 14:27:25;;;;;;;;;;;13.20;99.90;;;;;;5092681;28;19908;-74
2023/01/25 14:29:50;;;;;;;;;;;13.20;99.90;;;;;;5089239;28;19999;-74
2023/01/25 14:32:19;;;;;;;;;;;13.20;99.90;;;;;;5090634;28;19948;-74
2023/01/25 14:34:45;;;;;;;;;;;13.20;99.90;;;;;;5090665;28;19908;-75
2023/01/25 14:37:19;;;;;;;;;;;13.10;99.90;;;;;;5090760;28;19953;-73
2023/01/25 14:39:46;;;;;;;;;;;13.20;99.90;;;;;;5080026;28;19909;-73